Main page
METAR-TAF:

METAR-TAF

Airports :

Shannon Airport

Shannon, Ireland

latitude: 52-42N, longitude: 008-55W, elevation: 14 m

Current weather observation

The report was made 15 minutes ago, at 21:00 UTC
Wind 3 kt from the Northwest
Temperature 6°C
Humidity 81%
Pressure 1010 hPa
Visibility 10 km or more
Few clouds at a height of 2000 ft
Scattered clouds at a height of 5000 ft

METAR: EINN 052100Z 31003KT 9999 FEW020 SCT050 06/03 Q1010 NOSIG

Time: 22:15 (21:15 UTC)

Forecast

The report was made 4 hours and 15 minutes ago, at 17:00 UTC
Forecast valid from 05 at 18 UTC to 06 at 18 UTC
Wind 3 kt from variable directions
Visibility 10 km or more
Few clouds at a height of 2000 ft
Scattered clouds at a height of 4500 ft
Temporary
from 05 at 18 UTC to 05 at 19 UTC
Few clouds at a height of 2000 ft, Cumulonimbus.
light rain showers
Becoming
from 06 at 08 UTC to 06 at 10 UTC
Wind 8 kt from the North

TAF: EINN 051700Z 0518/0618 VRB03KT 9999 FEW020 SCT045 TEMPO 0518/0519 -SHRA FEW020CB BECMG 0608/0610 01008KT

Weather observations and forecasts of more than 4000 airports (METAR and TAF reports).

The available stations are represented by yellow and red dots on the map.

Hover mouse over dot to see the name of the station.

Then click to see weather observations and forecasts.

To change the map : click on the green buttons with a black cross to zoom in, on the green button with a dash to zoom out, or on the green arrows for adjacent maps.


METAR-TAF: